createdAt,value
2018-10-16T00:02:02.246Z,6.67
2018-10-16T00:04:31.521Z,7.97
2018-10-16T00:07:00.803Z,6.27
2018-10-16T00:09:30.088Z,6.77
2018-10-16T00:12:06.101Z,6.03
2018-10-16T00:14:35.376Z,5.53
2018-10-16T00:17:05.253Z,7.30
2018-10-16T00:19:34.986Z,8.07
2018-10-16T00:22:04.329Z,6.27
2018-10-16T00:24:33.621Z,5.93
2018-10-16T00:27:02.938Z,6.20
2018-10-16T00:29:32.177Z,5.70
2018-10-16T00:32:01.422Z,5.97
2018-10-16T00:34:30.721Z,5.83
2018-10-16T00:37:00.017Z,5.30
2018-10-16T00:39:29.272Z,5.67
2018-10-16T00:41:58.836Z,6.70
2018-10-16T00:44:28.100Z,6.43
2018-10-16T00:46:57.584Z,5.90
2018-10-16T00:49:26.885Z,6.13
2018-10-16T00:51:56.142Z,6.20
2018-10-16T00:54:25.387Z,6.20
2018-10-16T00:56:54.680Z,6.07
2018-10-16T00:59:23.921Z,5.83
2018-10-16T01:01:53.216Z,6.17
2018-10-16T01:04:22.516Z,6.20
2018-10-16T01:06:51.827Z,5.63
2018-10-16T01:09:21.068Z,6.17
2018-10-16T01:11:50.369Z,5.40
2018-10-16T01:14:19.616Z,5.90
2018-10-16T01:16:48.865Z,5.13
2018-10-16T01:19:18.227Z,6.07
2018-10-16T01:21:47.463Z,5.80
2018-10-16T01:24:16.796Z,5.33
2018-10-16T01:26:46.123Z,5.87
2018-10-16T01:29:15.369Z,5.70
2018-10-16T01:31:44.620Z,5.57
2018-10-16T01:34:13.899Z,5.80
2018-10-16T01:36:43.231Z,5.97
2018-10-16T01:39:12.453Z,6.07
2018-10-16T01:41:41.691Z,5.90
2018-10-16T01:44:10.983Z,7.03
2018-10-16T01:46:40.235Z,6.03
2018-10-16T01:49:09.492Z,5.20
2018-10-16T01:51:38.840Z,5.60
2018-10-16T01:54:08.112Z,7.67
2018-10-16T01:56:37.367Z,6.37
2018-10-16T01:59:06.861Z,5.83
2018-10-16T02:01:36.104Z,6.43
2018-10-16T02:04:05.402Z,5.47
2018-10-16T02:06:34.711Z,6.03
2018-10-16T02:09:04.120Z,5.60
2018-10-16T02:11:33.374Z,5.07
2018-10-16T02:14:02.707Z,5.13
2018-10-16T02:16:31.954Z,5.90
2018-10-16T02:19:01.203Z,5.57
2018-10-16T02:21:30.516Z,5.87
2018-10-16T02:23:59.774Z,5.43
2018-10-16T02:26:29.058Z,5.23
2018-10-16T02:28:58.360Z,5.60
2018-10-16T02:31:27.633Z,6.50
2018-10-16T02:33:57.127Z,5.47
2018-10-16T02:36:26.426Z,6.57
2018-10-16T02:38:55.669Z,5.77
2018-10-16T02:41:24.904Z,5.73
2018-10-16T02:43:54.208Z,6.47
2018-10-16T02:46:23.475Z,6.63
2018-10-16T02:48:52.721Z,7.60
2018-10-16T02:51:22.033Z,5.73
2018-10-16T02:53:51.306Z,6.60
2018-10-16T02:56:20.561Z,6.17
2018-10-16T02:58:49.859Z,6.77
2018-10-16T03:01:19.113Z,6.27
2018-10-16T03:03:48.356Z,5.90
2018-10-16T03:06:17.640Z,5.63
2018-10-16T03:08:46.886Z,5.70
2018-10-16T03:11:16.140Z,5.50
2018-10-16T03:13:45.450Z,6.00
2018-10-16T03:16:14.696Z,5.63
2018-10-16T03:18:43.943Z,5.20
2018-10-16T03:21:13.232Z,6.00
2018-10-16T03:23:42.693Z,5.00
2018-10-16T03:26:11.930Z,5.27
2018-10-16T03:28:41.219Z,5.93
2018-10-16T03:31:10.683Z,5.30
2018-10-16T03:33:39.923Z,5.63
2018-10-16T03:36:09.204Z,5.20
2018-10-16T03:38:38.469Z,4.60
2018-10-16T03:41:07.709Z,6.23
2018-10-16T03:43:38.699Z,5.97
2018-10-16T03:46:08.275Z,7.20
2018-10-16T03:48:37.552Z,6.00
2018-10-16T03:51:06.846Z,6.20
2018-10-16T03:53:36.124Z,6.00
2018-10-16T03:56:05.905Z,5.73
2018-10-16T03:58:35.281Z,6.43
2018-10-16T04:01:04.537Z,5.87
2018-10-16T04:03:33.777Z,7.23
2018-10-16T04:06:03.082Z,6.97
2018-10-16T04:08:32.329Z,6.10
2018-10-16T04:11:01.561Z,6.43
2018-10-16T04:13:30.962Z,6.10
2018-10-16T04:16:00.204Z,6.87
2018-10-16T04:18:29.464Z,6.40
2018-10-16T04:20:58.764Z,6.83
2018-10-16T04:23:28.015Z,6.03
2018-10-16T04:25:57.261Z,5.50
2018-10-16T04:28:26.717Z,6.00
2018-10-16T04:30:55.969Z,5.40
2018-10-16T04:33:25.461Z,6.67
2018-10-16T04:35:54.736Z,6.03
2018-10-16T04:38:23.983Z,5.07
2018-10-16T04:40:53.231Z,6.03
2018-10-16T04:43:22.576Z,6.67
2018-10-16T04:45:51.833Z,5.67
2018-10-16T04:48:21.072Z,6.43
2018-10-16T04:50:50.400Z,6.47
2018-10-16T04:53:19.672Z,5.67
2018-10-16T04:55:49.035Z,6.13
2018-10-16T04:58:18.324Z,6.23
2018-10-16T05:00:47.593Z,5.53
2018-10-16T05:03:16.864Z,5.40
2018-10-16T05:05:46.152Z,5.57
2018-10-16T05:08:15.382Z,5.70
2018-10-16T05:10:44.613Z,5.20
2018-10-16T05:13:13.988Z,5.47
2018-10-16T05:15:43.217Z,5.73
2018-10-16T05:18:12.467Z,6.63
2018-10-16T05:20:41.762Z,6.00
2018-10-16T05:23:10.994Z,5.77
2018-10-16T05:25:40.240Z,5.67
2018-10-16T05:28:09.539Z,5.77
2018-10-16T05:30:38.778Z,5.50
2018-10-16T05:33:08.027Z,7.00
2018-10-16T05:35:37.308Z,5.67
2018-10-16T05:38:06.808Z,5.90
2018-10-16T05:40:36.056Z,5.63
2018-10-16T05:43:05.771Z,5.47
2018-10-16T05:45:37.488Z,5.30
2018-10-16T05:48:07.011Z,5.17
2018-10-16T05:50:36.265Z,6.13
2018-10-16T05:53:05.898Z,6.30
2018-10-16T05:55:35.187Z,6.20
2018-10-16T05:58:04.468Z,6.00
2018-10-16T06:00:45.293Z,6.83
2018-10-16T06:03:14.584Z,5.70
2018-10-16T06:05:43.921Z,5.70
2018-10-16T06:08:13.199Z,7.17
2018-10-16T06:10:42.476Z,4.43
2018-10-16T06:13:11.783Z,6.23
2018-10-16T06:15:41.052Z,5.73
2018-10-16T06:18:10.301Z,6.77
2018-10-16T06:20:39.672Z,5.43
2018-10-16T06:23:09.135Z,6.47
2018-10-16T06:25:38.405Z,6.47
2018-10-16T06:28:20.696Z,5.27
2018-10-16T06:30:50.021Z,5.07
2018-10-16T06:33:21.352Z,8.57
2018-10-16T06:35:50.692Z,6.27
2018-10-16T06:38:20.060Z,5.23
2018-10-16T06:40:49.522Z,6.87
2018-10-16T06:43:18.655Z,7.13
2018-10-16T06:45:47.914Z,6.73
2018-10-16T06:48:17.529Z,6.10
2018-10-16T06:50:46.669Z,7.27
2018-10-16T06:53:15.989Z,6.60
2018-10-16T06:55:45.282Z,7.13
2018-10-16T06:58:14.541Z,7.07
2018-10-16T07:00:43.800Z,5.57
2018-10-16T07:03:13.088Z,6.00
2018-10-16T07:05:42.337Z,5.77
2018-10-16T07:08:11.592Z,7.43
2018-10-16T07:10:40.905Z,5.87
2018-10-16T07:13:10.164Z,5.40
2018-10-16T07:15:39.492Z,6.43
2018-10-16T07:18:08.812Z,5.83
2018-10-16T07:20:38.057Z,5.73
2018-10-16T07:23:07.508Z,5.97
2018-10-16T07:25:36.796Z,5.53
2018-10-16T07:28:06.064Z,5.50
2018-10-16T07:30:35.316Z,6.03
2018-10-16T07:33:04.651Z,5.43
2018-10-16T07:35:33.902Z,6.57
2018-10-16T07:38:03.293Z,6.57
2018-10-16T07:40:32.516Z,5.90
2018-10-16T07:43:01.748Z,6.97
2018-10-16T07:45:30.996Z,6.70
2018-10-16T07:48:00.311Z,6.63
2018-10-16T07:50:29.622Z,6.53
2018-10-16T07:52:58.896Z,7.47
2018-10-16T07:55:28.189Z,8.10
2018-10-16T07:57:57.424Z,6.53
2018-10-16T08:00:26.666Z,6.90
2018-10-16T08:02:56.062Z,5.40
2018-10-16T08:05:25.308Z,5.73
2018-10-16T08:07:54.547Z,5.40
2018-10-16T08:10:23.834Z,7.97
2018-10-16T08:12:53.088Z,6.70
2018-10-16T08:15:22.337Z,7.37
2018-10-16T08:17:51.638Z,6.90
2018-10-16T08:20:20.899Z,7.43
2018-10-16T08:22:50.148Z,9.90
2018-10-16T08:25:19.461Z,10.70
2018-10-16T08:27:48.702Z,10.13
2018-10-16T08:30:18.012Z,9.97
2018-10-16T08:32:47.321Z,9.83
2018-10-16T08:35:16.758Z,13.07
2018-10-16T08:38:28.936Z,9.70
2018-10-16T08:40:58.841Z,8.33
2018-10-16T08:43:44.535Z,9.20
2018-10-16T08:46:24.864Z,7.50
2018-10-16T08:49:05.563Z,6.03
2018-10-16T08:51:39.945Z,6.93
2018-10-16T08:54:09.649Z,8.93
2018-10-16T08:56:38.905Z,6.80
2018-10-16T08:59:08.264Z,6.53
2018-10-16T09:01:37.561Z,5.37
2018-10-16T09:04:07.201Z,5.73
2018-10-16T09:06:36.493Z,5.93
2018-10-16T09:09:12.511Z,6.60
2018-10-16T09:11:43.203Z,4.83
2018-10-16T09:14:12.908Z,5.80
2018-10-16T09:16:42.181Z,5.63
2018-10-16T09:19:11.532Z,4.87
2018-10-16T09:21:40.837Z,5.30
2018-10-16T09:24:10.068Z,6.13
2018-10-16T09:26:39.334Z,6.33
2018-10-16T09:29:08.632Z,5.77
2018-10-16T09:31:37.865Z,4.70
2018-10-16T09:34:07.105Z,5.07
2018-10-16T09:36:36.395Z,5.13
2018-10-16T09:39:09.148Z,5.20
2018-10-16T09:41:38.454Z,5.20
2018-10-16T09:44:07.745Z,5.40
2018-10-16T09:46:37.117Z,4.60
2018-10-16T09:49:06.496Z,4.50
2018-10-16T09:51:35.912Z,4.40
2018-10-16T09:54:05.248Z,5.37
2018-10-16T09:56:34.694Z,5.33
2018-10-16T09:59:04.012Z,4.87
2018-10-16T10:01:38.440Z,4.73
2018-10-16T10:04:07.746Z,4.53
2018-10-16T10:06:37.015Z,4.27
2018-10-16T10:09:09.462Z,5.00
2018-10-16T10:11:38.896Z,4.23
2018-10-16T10:14:08.569Z,4.20
2018-10-16T10:16:37.978Z,5.47
2018-10-16T10:19:07.409Z,4.53
2018-10-16T10:21:36.752Z,4.07
2018-10-16T10:24:06.206Z,4.30
2018-10-16T10:26:35.444Z,5.20
2018-10-16T10:29:04.739Z,5.23
2018-10-16T10:31:34.079Z,4.43
2018-10-16T10:34:03.326Z,4.53
2018-10-16T10:36:32.563Z,4.60
2018-10-16T10:39:01.861Z,4.77
2018-10-16T10:41:31.119Z,5.17
2018-10-16T10:44:00.372Z,4.30
2018-10-16T10:46:29.677Z,6.27
2018-10-16T10:48:58.957Z,5.33
2018-10-16T10:51:28.424Z,5.10
2018-10-16T10:53:57.586Z,4.77
2018-10-16T10:56:26.943Z,5.73
2018-10-16T10:58:56.198Z,4.90
2018-10-16T11:01:25.580Z,5.27
2018-10-16T11:03:54.810Z,5.10
2018-10-16T11:06:24.065Z,4.87
2018-10-16T11:08:53.432Z,4.40
2018-10-16T11:11:22.773Z,4.70
2018-10-16T11:13:52.012Z,5.00
2018-10-16T11:16:21.331Z,4.87
2018-10-16T11:18:50.568Z,5.23
2018-10-16T11:21:19.817Z,5.73
2018-10-16T11:23:49.103Z,5.83
2018-10-16T11:26:18.354Z,4.33
2018-10-16T11:28:47.615Z,4.97
2018-10-16T11:31:17.001Z,6.17
2018-10-16T11:33:46.247Z,4.67
2018-10-16T11:36:15.482Z,4.43
2018-10-16T11:38:44.781Z,5.73
2018-10-16T11:41:14.108Z,4.67
2018-10-16T11:43:43.348Z,5.50
2018-10-16T11:46:12.643Z,5.53
2018-10-16T11:48:47.973Z,5.23
2018-10-16T11:51:17.262Z,5.00
2018-10-16T11:53:46.491Z,4.47
2018-10-16T11:56:15.824Z,5.03
2018-10-16T11:58:45.117Z,4.20
2018-10-16T12:01:14.378Z,3.97
2018-10-16T12:03:43.624Z,5.00
2018-10-16T12:06:13.030Z,4.97
2018-10-16T12:08:42.261Z,4.67
2018-10-16T12:11:11.555Z,4.17
2018-10-16T12:13:40.875Z,4.43
2018-10-16T12:16:10.127Z,5.10
2018-10-16T12:18:44.585Z,4.43
2018-10-16T12:21:17.874Z,4.63
2018-10-16T12:23:47.515Z,5.10
2018-10-16T12:26:17.480Z,4.90
2018-10-16T12:28:46.991Z,4.27
2018-10-16T12:31:16.293Z,5.05
2018-10-16T12:33:45.538Z,4.63
2018-10-16T12:36:14.780Z,8.23
2018-10-16T12:38:44.081Z,4.90
2018-10-16T12:41:13.407Z,5.17
2018-10-16T12:43:42.842Z,4.60
2018-10-16T12:46:12.048Z,5.33
2018-10-16T12:48:41.262Z,6.10
2018-10-16T12:51:10.620Z,4.50
2018-10-16T12:53:39.863Z,4.87
2018-10-16T12:56:09.206Z,4.40
2018-10-16T12:58:38.425Z,5.03
2018-10-16T13:01:07.904Z,6.08
2018-10-16T13:03:37.211Z,4.92
2018-10-16T13:06:06.462Z,4.75
2018-10-16T13:08:35.784Z,5.45
2018-10-16T13:11:05.303Z,4.60
2018-10-16T13:13:34.579Z,5.90
2018-10-16T13:16:03.939Z,5.60
2018-10-16T13:18:33.232Z,7.33
2018-10-16T13:21:02.496Z,5.95
2018-10-16T13:23:31.851Z,5.53
2018-10-16T13:26:01.096Z,5.35
2018-10-16T13:28:30.372Z,6.22
2018-10-16T13:30:59.671Z,6.03
2018-10-16T13:33:28.944Z,5.80
2018-10-16T13:35:58.188Z,4.72
2018-10-16T13:38:27.490Z,5.33
2018-10-16T13:40:56.730Z,4.65
2018-10-16T13:43:25.965Z,6.20
2018-10-16T13:45:55.628Z,5.15
2018-10-16T13:48:24.880Z,7.23
2018-10-16T13:50:54.235Z,6.93
2018-10-16T13:53:23.561Z,6.87
2018-10-16T13:55:52.823Z,4.92
2018-10-16T13:58:22.070Z,5.28
2018-10-16T14:00:51.357Z,5.37
2018-10-16T14:03:20.613Z,5.67
2018-10-16T14:05:49.840Z,5.90
2018-10-16T14:08:19.159Z,5.50
2018-10-16T14:10:48.412Z,4.83
2018-10-16T14:13:17.658Z,4.70
2018-10-16T14:15:46.956Z,6.17
2018-10-16T14:18:16.192Z,5.60
2018-10-16T14:20:45.451Z,4.43
2018-10-16T14:23:14.738Z,4.70
2018-10-16T14:25:43.997Z,6.13
2018-10-16T14:28:13.315Z,6.22
2018-10-16T14:30:42.590Z,4.85
2018-10-16T14:33:12.241Z,5.08
2018-10-16T14:35:41.484Z,6.10
2018-10-16T14:38:10.874Z,5.75
2018-10-16T14:40:40.120Z,4.45
2018-10-16T14:43:09.420Z,4.72
2018-10-16T14:45:38.724Z,6.80
2018-10-16T14:48:08.229Z,6.00
2018-10-16T14:50:37.317Z,4.78
2018-10-16T14:53:06.781Z,4.45
2018-10-16T14:55:36.176Z,5.28
2018-10-16T14:58:05.449Z,4.60
2018-10-16T15:00:34.776Z,6.40
2018-10-16T15:03:04.021Z,4.08
2018-10-16T15:05:33.262Z,4.90
2018-10-16T15:08:02.657Z,4.72
2018-10-16T15:10:31.979Z,5.42
2018-10-16T15:13:01.220Z,4.92
2018-10-16T15:15:30.536Z,4.62
2018-10-16T15:17:59.770Z,5.03
2018-10-16T15:20:29.037Z,6.50
2018-10-16T15:22:58.465Z,5.62
2018-10-16T15:25:27.709Z,5.00
2018-10-16T15:27:57.025Z,4.92
2018-10-16T15:30:26.313Z,4.30
2018-10-16T15:32:55.540Z,7.03
2018-10-16T15:35:24.780Z,5.60
2018-10-16T15:37:54.136Z,4.62
2018-10-16T15:40:23.381Z,5.40
2018-10-16T15:42:52.621Z,5.20
2018-10-16T15:45:21.896Z,4.58
2018-10-16T15:47:51.303Z,4.28
2018-10-16T15:50:20.599Z,5.15
2018-10-16T15:52:49.887Z,5.58
2018-10-16T15:55:19.171Z,4.87
2018-10-16T15:57:48.462Z,4.35
2018-10-16T16:00:18.332Z,7.45
2018-10-16T16:02:47.641Z,4.08
2018-10-16T16:05:16.879Z,5.50
2018-10-16T16:07:46.154Z,4.87
2018-10-16T16:10:16.492Z,5.80
2018-10-16T16:12:45.748Z,6.65
2018-10-16T16:15:15.148Z,4.67
2018-10-16T16:17:44.853Z,4.50
2018-10-16T16:20:15.116Z,4.83
2018-10-16T16:22:44.704Z,4.20
2018-10-16T16:25:15.046Z,4.45
2018-10-16T16:27:44.302Z,4.00
2018-10-16T16:30:15.591Z,4.70
2018-10-16T16:32:44.837Z,4.87
2018-10-16T16:35:14.152Z,5.78
2018-10-16T16:37:43.470Z,4.80
2018-10-16T16:40:13.953Z,5.23
2018-10-16T16:42:43.463Z,5.23
2018-10-16T16:45:13.087Z,4.87
2018-10-16T16:47:42.335Z,5.30
2018-10-16T16:50:12.498Z,6.50
2018-10-16T16:52:42.433Z,5.17
2018-10-16T16:55:13.563Z,6.27
2018-10-16T16:57:43.003Z,5.17
2018-10-16T17:00:13.396Z,6.90
2018-10-16T17:02:44.009Z,6.73
2018-10-16T17:05:13.791Z,7.20
2018-10-16T17:07:43.665Z,6.77
2018-10-16T17:10:13.214Z,6.67
2018-10-16T17:12:42.612Z,5.90
2018-10-16T17:15:14.370Z,6.27
2018-10-16T17:17:44.265Z,6.83
2018-10-16T17:20:13.634Z,5.57
2018-10-16T17:22:42.876Z,5.20
2018-10-16T17:25:13.984Z,5.83
2018-10-16T17:27:43.909Z,5.97
2018-10-16T17:30:15.010Z,8.13
2018-10-16T17:32:44.700Z,14.67
2018-10-16T17:35:14.575Z,6.93
2018-10-16T17:37:43.840Z,7.93
2018-10-16T17:40:14.296Z,6.73
2018-10-16T17:42:43.636Z,9.03
2018-10-16T17:45:14.334Z,13.80
2018-10-16T17:47:43.714Z,8.83
2018-10-16T17:50:14.956Z,12.57
2018-10-16T17:52:44.268Z,9.17
2018-10-16T17:55:14.242Z,8.97
2018-10-16T17:57:43.759Z,11.83
2018-10-16T18:00:15.349Z,8.50
2018-10-16T18:02:45.115Z,10.87
2018-10-16T18:05:14.816Z,10.63
2018-10-16T18:07:44.706Z,13.00
2018-10-16T18:10:14.074Z,9.10
2018-10-16T18:12:43.311Z,6.43
2018-10-16T18:15:13.819Z,6.93
2018-10-16T18:17:43.749Z,8.37
2018-10-16T18:20:14.701Z,9.97
2018-10-16T18:22:44.535Z,8.40
2018-10-16T18:25:13.916Z,7.07
2018-10-16T18:27:44.124Z,7.27
2018-10-16T18:30:13.712Z,6.47
2018-10-16T18:32:43.016Z,7.17
2018-10-16T18:35:12.638Z,6.33
2018-10-16T18:37:43.170Z,6.60
2018-10-16T18:40:13.282Z,9.00
2018-10-16T18:42:42.750Z,6.67
2018-10-16T18:45:13.425Z,7.80
2018-10-16T18:47:42.664Z,8.07
2018-10-16T18:50:13.144Z,6.43
2018-10-16T18:52:42.819Z,6.60
2018-10-16T18:55:13.560Z,6.57
2018-10-16T18:57:42.811Z,7.63
2018-10-16T19:00:18.362Z,7.77
2018-10-16T19:02:48.387Z,7.37
2018-10-16T19:05:17.690Z,7.47
2018-10-16T19:07:47.001Z,8.10
2018-10-16T19:10:16.300Z,8.03
2018-10-16T19:12:45.540Z,9.50
2018-10-16T19:15:16.007Z,7.00
2018-10-16T19:17:45.948Z,6.90
2018-10-16T19:20:16.516Z,8.37
2018-10-16T19:22:46.589Z,10.10
2018-10-16T19:25:18.674Z,8.90
2018-10-16T19:27:48.063Z,9.63
2018-10-16T19:30:17.318Z,8.10
2018-10-16T19:32:46.583Z,9.90
2018-10-16T19:35:16.440Z,7.00
2018-10-16T19:37:45.783Z,7.03
2018-10-16T19:40:15.060Z,7.30
2018-10-16T19:42:44.391Z,7.60
2018-10-16T19:45:14.647Z,7.03
2018-10-16T19:47:44.472Z,6.47
2018-10-16T19:50:13.731Z,7.53
2018-10-16T19:52:42.987Z,7.70
2018-10-16T19:55:12.459Z,9.77
2018-10-16T19:57:41.688Z,6.93
2018-10-16T20:00:11.164Z,8.07
2018-10-16T20:02:40.485Z,7.90
2018-10-16T20:05:10.068Z,7.27
2018-10-16T20:07:39.387Z,10.90
2018-10-16T20:10:09.933Z,8.77
2018-10-16T20:12:39.276Z,8.33
2018-10-16T20:15:10.102Z,8.30
2018-10-16T20:17:39.458Z,7.67
2018-10-16T20:20:09.461Z,8.23
2018-10-16T20:22:38.715Z,9.90
2018-10-16T20:25:09.025Z,7.63
2018-10-16T20:27:38.278Z,10.27
2018-10-16T20:30:09.154Z,8.17
2018-10-16T20:32:38.388Z,8.57
2018-10-16T20:35:07.736Z,8.53
2018-10-16T20:37:37.044Z,7.37
2018-10-16T20:40:06.504Z,8.03
2018-10-16T20:42:36.302Z,7.97
2018-10-16T20:45:05.732Z,9.73
2018-10-16T20:47:34.995Z,7.60
2018-10-16T20:50:04.312Z,7.27
2018-10-16T20:52:33.641Z,8.03
2018-10-16T20:55:03.018Z,7.73
2018-10-16T20:57:32.263Z,7.67
2018-10-16T21:00:02.216Z,8.10
2018-10-16T21:02:31.460Z,8.80
2018-10-16T21:05:00.825Z,7.73
2018-10-16T21:07:30.165Z,7.43
2018-10-16T21:09:59.434Z,7.93
2018-10-16T21:12:28.644Z,7.67
2018-10-16T21:14:57.939Z,8.00
2018-10-16T21:17:27.216Z,8.13
2018-10-16T21:19:56.469Z,7.70
2018-10-16T21:22:25.788Z,7.70
2018-10-16T21:24:55.097Z,7.67
2018-10-16T21:27:24.543Z,7.20
2018-10-16T21:29:53.846Z,7.87
2018-10-16T21:32:23.136Z,6.97
2018-10-16T21:34:52.445Z,7.20
2018-10-16T21:37:21.763Z,9.50
2018-10-16T21:39:51.008Z,6.80
2018-10-16T21:42:20.251Z,6.57
2018-10-16T21:44:49.568Z,7.53
2018-10-16T21:47:18.827Z,7.57
2018-10-16T21:49:48.091Z,6.83
2018-10-16T21:52:17.384Z,7.33
2018-10-16T21:54:46.685Z,7.00
2018-10-16T21:57:16.103Z,8.00
2018-10-16T21:59:45.501Z,7.03
2018-10-16T22:02:19.923Z,7.77
2018-10-16T22:04:49.216Z,7.63
2018-10-16T22:07:18.468Z,6.63
2018-10-16T22:09:47.715Z,6.90
2018-10-16T22:12:17.279Z,6.30
2018-10-16T22:14:46.655Z,6.90
2018-10-16T22:17:16.046Z,7.40
2018-10-16T22:19:45.236Z,6.63
2018-10-16T22:22:14.481Z,6.30
2018-10-16T22:24:43.735Z,7.63
2018-10-16T22:27:13.024Z,6.93
2018-10-16T22:29:42.394Z,8.17
2018-10-16T22:32:11.646Z,8.30
2018-10-16T22:34:40.983Z,6.83
2018-10-16T22:37:10.318Z,6.80
2018-10-16T22:39:39.521Z,6.83
2018-10-16T22:42:08.813Z,6.57
2018-10-16T22:44:38.096Z,6.97
2018-10-16T22:47:07.469Z,7.33
2018-10-16T22:49:36.784Z,6.30
2018-10-16T22:52:06.356Z,8.90
2018-10-16T22:54:35.612Z,6.23
2018-10-16T22:57:04.959Z,7.13
2018-10-16T22:59:34.184Z,6.57
2018-10-16T23:02:03.447Z,7.70
2018-10-16T23:04:32.746Z,7.57
2018-10-16T23:07:02.041Z,6.57
2018-10-16T23:09:31.700Z,6.27
2018-10-16T23:12:00.988Z,6.20
2018-10-16T23:14:30.233Z,6.57
2018-10-16T23:16:59.567Z,6.57
2018-10-16T23:19:28.909Z,6.60
2018-10-16T23:21:58.171Z,7.30
2018-10-16T23:24:27.421Z,6.63
2018-10-16T23:26:56.712Z,6.87
2018-10-16T23:29:25.982Z,6.73
2018-10-16T23:31:55.240Z,6.83
2018-10-16T23:34:24.569Z,6.07
2018-10-16T23:36:53.822Z,7.60
2018-10-16T23:39:23.064Z,6.70
2018-10-16T23:41:52.364Z,6.17
2018-10-16T23:44:21.619Z,6.83
2018-10-16T23:46:50.881Z,7.03
2018-10-16T23:49:20.176Z,6.90
2018-10-16T23:51:49.416Z,7.67
2018-10-16T23:54:18.743Z,7.50
2018-10-16T23:56:48.061Z,6.53
2018-10-16T23:59:17.295Z,6.47
